Time;durP1;ratioP1;P1;durP2;ratioP2;P2;SDS_P1;SDS_P2;PMS_P1;PMS_P2;Temp;Humidity;BMP_temperature;BMP_pressure;BME280_temperature;BME280_humidity;BME280_pressure;Samples;Min_cycle;Max_cycle;Signal;HPM_P1;HPM_P2
2023/08/08 00:01:28;;;;;;;737.72;658.65;;;;;;;;;;5012309;28;20127;-65
2023/08/08 00:03:55;;;;;;;730.13;651.05;;;;;;;;;;5012260;28;20046;-64
2023/08/08 00:06:22;;;;;;;740.00;659.60;;;;;;;;;;5012104;28;20030;-63
2023/08/08 00:08:48;;;;;;;736.72;657.33;;;;;;;;;;5012350;28;20033;-64
2023/08/08 00:11:15;;;;;;;745.47;660.67;;;;;;;;;;4992362;28;20046;-64
2023/08/08 00:13:41;;;;;;;728.78;650.38;;;;;;;;;;5013119;28;20124;-64
2023/08/08 00:16:08;;;;;;;734.97;654.40;;;;;;;;;;5012346;28;20131;-65
2023/08/08 00:18:34;;;;;;;731.22;651.55;;;;;;;;;;5011671;28;20046;-64
2023/08/08 00:21:01;;;;;;;748.58;667.78;;;;;;;;;;5012388;28;20454;-64
2023/08/08 00:23:27;;;;;;;741.05;659.22;;;;;;;;;;5012101;28;21488;-64
2023/08/08 00:25:56;;;;;;;742.45;662.95;;;;;;;;;;5012511;28;20052;-64
2023/08/08 00:28:23;;;;;;;729.05;648.38;;;;;;;;;;5011647;28;20084;-64
2023/08/08 00:30:50;;;;;;;724.53;646.20;;;;;;;;;;4984125;28;20129;-64
2023/08/08 00:33:16;;;;;;;736.55;657.38;;;;;;;;;;5010432;28;20041;-64
2023/08/08 00:35:44;;;;;;;724.03;644.90;;;;;;;;;;5011798;28;20057;-64
2023/08/08 00:38:11;;;;;;;746.05;664.22;;;;;;;;;;4990965;28;20108;-65
2023/08/08 00:40:37;;;;;;;725.05;646.60;;;;;;;;;;5011408;28;20080;-65
2023/08/08 00:43:04;;;;;;;744.15;664.30;;;;;;;;;;5011724;28;20044;-64
2023/08/08 00:45:31;;;;;;;717.95;639.50;;;;;;;;;;4999118;28;22107;-65
2023/08/08 00:47:57;;;;;;;725.78;646.05;;;;;;;;;;5010870;28;20038;-65
2023/08/08 00:50:24;;;;;;;740.42;637.92;;;;;;;;;;4993720;28;20085;-65
2023/08/08 00:52:50;;;;;;;712.28;635.88;;;;;;;;;;5011479;28;20037;-65
2023/08/08 00:55:17;;;;;;;722.17;643.97;;;;;;;;;;5011010;28;20502;-65
2023/08/08 00:57:43;;;;;;;731.97;650.15;;;;;;;;;;4993778;28;20049;-64
2023/08/08 01:00:10;;;;;;;717.47;639.38;;;;;;;;;;5011484;28;20407;-64
2023/08/08 01:02:38;;;;;;;722.20;643.10;;;;;;;;;;5001260;28;20046;-64
2023/08/08 01:05:05;;;;;;;723.65;644.90;;;;;;;;;;5010572;28;20045;-64
2023/08/08 01:07:35;;;;;;;727.45;647.67;;;;;;;;;;5011064;28;20068;-64
2023/08/08 01:10:07;;;;;;;735.78;656.17;;;;;;;;;;5010675;28;20057;-64
2023/08/08 01:12:39;;;;;;;718.13;639.50;;;;;;;;;;5011408;28;20121;-64
2023/08/08 01:15:08;;;;;;;727.00;647.75;;;;;;;;;;5007227;28;20041;-64
2023/08/08 01:17:36;;;;;;;731.63;652.20;;;;;;;;;;5010866;28;20045;-64
2023/08/08 01:20:07;;;;;;;734.80;655.08;;;;;;;;;;4990865;28;20046;-63
2023/08/08 01:22:45;;;;;;;734.40;653.97;;;;;;;;;;5004562;28;20464;-63
2023/08/08 01:25:11;;;;;;;736.85;656.90;;;;;;;;;;5008528;28;20041;-64
2023/08/08 01:27:38;;;;;;;731.92;652.15;;;;;;;;;;5011221;28;20046;-64
2023/08/08 01:30:08;;;;;;;710.33;631.33;;;;;;;;;;5009510;28;20045;-63
2023/08/08 01:32:35;;;;;;;727.03;646.83;;;;;;;;;;5010693;28;20092;-63
2023/08/08 01:35:02;;;;;;;728.10;639.38;;;;;;;;;;5002410;28;20053;-64
2023/08/08 01:37:32;;;;;;;721.85;643.60;;;;;;;;;;5010964;28;20045;-64
2023/08/08 01:40:00;;;;;;;724.92;639.15;;;;;;;;;;4999743;28;20049;-64
2023/08/08 01:42:27;;;;;;;723.05;637.40;;;;;;;;;;4992623;28;20107;-64
2023/08/08 01:44:55;;;;;;;735.40;642.85;;;;;;;;;;5010762;28;20077;-64
2023/08/08 01:47:21;;;;;;;722.05;623.85;;;;;;;;;;5010295;28;20400;-64
2023/08/08 01:49:48;;;;;;;707.20;627.13;;;;;;;;;;5010108;28;20077;-64
2023/08/08 01:52:14;;;;;;;701.72;623.17;;;;;;;;;;4992528;28;20616;-64
2023/08/08 01:54:42;;;;;;;695.53;605.75;;;;;;;;;;5010322;28;20052;-64
2023/08/08 01:57:08;;;;;;;713.55;619.63;;;;;;;;;;5010412;28;20046;-65
2023/08/08 01:59:35;;;;;;;711.72;624.78;;;;;;;;;;5009194;28;20100;-64
2023/08/08 02:02:01;;;;;;;751.42;625.88;;;;;;;;;;5031241;23;20054;-63
2023/08/08 02:04:29;;;;;;;726.30;615.53;;;;;;;;;;5006418;28;20068;-62
2023/08/08 02:06:55;;;;;;;713.13;612.13;;;;;;;;;;5013869;28;20050;-62
2023/08/08 02:09:23;;;;;;;724.97;610.88;;;;;;;;;;5006178;28;20487;-62
2023/08/08 02:11:50;;;;;;;699.28;603.90;;;;;;;;;;5004941;28;20399;-60
2023/08/08 02:14:17;;;;;;;757.78;616.72;;;;;;;;;;5007576;28;20049;-62
2023/08/08 02:16:43;;;;;;;708.53;605.25;;;;;;;;;;5007794;28;20042;-61
2023/08/08 02:19:10;;;;;;;725.72;595.47;;;;;;;;;;5006985;28;20050;-62
2023/08/08 02:21:36;;;;;;;720.30;620.88;;;;;;;;;;5006612;28;20127;-62
2023/08/08 02:24:03;;;;;;;719.80;600.78;;;;;;;;;;5006887;28;20045;-62
2023/08/08 02:26:30;;;;;;;757.38;618.80;;;;;;;;;;5006374;28;20140;-63
2023/08/08 02:28:57;;;;;;;707.17;597.85;;;;;;;;;;5009910;28;20109;-61
2023/08/08 02:31:24;;;;;;;695.15;605.47;;;;;;;;;;5008558;28;20088;-63
2023/08/08 02:33:51;;;;;;;681.85;593.60;;;;;;;;;;5009361;28;20038;-61
2023/08/08 02:36:18;;;;;;;755.08;605.03;;;;;;;;;;5009257;28;20069;-62
2023/08/08 02:38:45;;;;;;;690.08;599.83;;;;;;;;;;5008554;28;20062;-62
2023/08/08 02:41:11;;;;;;;712.00;604.97;;;;;;;;;;5009340;28;20057;-62
2023/08/08 02:43:38;;;;;;;704.65;604.03;;;;;;;;;;5008694;28;20583;-63
2023/08/08 02:46:05;;;;;;;704.97;602.47;;;;;;;;;;5006350;28;20129;-61
2023/08/08 02:48:32;;;;;;;718.17;589.75;;;;;;;;;;5005732;28;20554;-63
2023/08/08 02:50:58;;;;;;;700.15;579.42;;;;;;;;;;5009777;28;20045;-63
2023/08/08 02:53:26;;;;;;;723.05;587.00;;;;;;;;;;5008159;28;20274;-62
2023/08/08 02:55:53;;;;;;;692.47;585.50;;;;;;;;;;5009762;28;20049;-63
2023/08/08 02:58:20;;;;;;;702.00;578.60;;;;;;;;;;5006967;28;20045;-63
2023/08/08 03:00:46;;;;;;;686.67;586.88;;;;;;;;;;5008003;28;20053;-63
2023/08/08 03:03:15;;;;;;;687.33;564.80;;;;;;;;;;5003176;28;20061;-62
2023/08/08 03:05:44;;;;;;;699.20;574.20;;;;;;;;;;5007314;28;20050;-61
2023/08/08 03:08:11;;;;;;;700.10;574.30;;;;;;;;;;4992132;28;20044;-61
2023/08/08 03:10:38;;;;;;;695.28;581.17;;;;;;;;;;5007494;28;20141;-62
2023/08/08 03:13:04;;;;;;;695.20;576.75;;;;;;;;;;5005789;28;20050;-62
2023/08/08 03:15:31;;;;;;;700.28;577.13;;;;;;;;;;5006998;28;20050;-62
2023/08/08 03:17:58;;;;;;;686.35;571.75;;;;;;;;;;5007481;28;20125;-62
2023/08/08 03:20:25;;;;;;;717.20;571.78;;;;;;;;;;5005792;28;20145;-66
2023/08/08 03:22:52;;;;;;;696.78;576.42;;;;;;;;;;5009892;28;20415;-62
2023/08/08 03:25:19;;;;;;;675.63;567.22;;;;;;;;;;5005018;28;20052;-63
2023/08/08 03:27:46;;;;;;;688.55;565.67;;;;;;;;;;5004904;28;20030;-62
2023/08/08 03:30:14;;;;;;;686.83;578.60;;;;;;;;;;4996774;28;20120;-65
2023/08/08 03:32:42;;;;;;;688.13;568.60;;;;;;;;;;5007344;28;20070;-62
2023/08/08 03:35:09;;;;;;;699.88;581.20;;;;;;;;;;5009637;28;20403;-64
2023/08/08 03:37:38;;;;;;;694.75;565.33;;;;;;;;;;5000183;28;20060;-62
2023/08/08 03:40:07;;;;;;;692.13;571.42;;;;;;;;;;5006689;28;20042;-63
2023/08/08 03:42:34;;;;;;;687.03;577.95;;;;;;;;;;5003390;28;20737;-63
2023/08/08 03:45:01;;;;;;;693.55;572.15;;;;;;;;;;5007310;28;20038;-63
2023/08/08 03:47:28;;;;;;;740.08;581.17;;;;;;;;;;5006003;28;20070;-61
2023/08/08 03:49:57;;;;;;;692.85;584.88;;;;;;;;;;5008260;28;20606;-63
2023/08/08 03:52:24;;;;;;;688.92;571.38;;;;;;;;;;4990730;28;20057;-64
2023/08/08 03:54:51;;;;;;;684.50;574.00;;;;;;;;;;5006714;28;20067;-62
2023/08/08 03:57:18;;;;;;;690.10;569.53;;;;;;;;;;5008528;28;20042;-63
2023/08/08 03:59:44;;;;;;;722.58;582.72;;;;;;;;;;5006992;28;20100;-63
2023/08/08 04:02:11;;;;;;;693.95;587.05;;;;;;;;;;5007565;28;20080;-62
2023/08/08 04:04:38;;;;;;;700.13;588.85;;;;;;;;;;5008851;28;20487;-62
2023/08/08 04:07:05;;;;;;;698.05;585.03;;;;;;;;;;5008235;28;20380;-62
2023/08/08 04:09:31;;;;;;;701.97;584.42;;;;;;;;;;5008070;28;20467;-62
2023/08/08 04:11:58;;;;;;;709.70;579.95;;;;;;;;;;5006973;28;20042;-61
2023/08/08 04:14:25;;;;;;;731.45;588.05;;;;;;;;;;5008462;28;20415;-62
2023/08/08 04:16:51;;;;;;;680.38;582.95;;;;;;;;;;5008128;28;20046;-63
2023/08/08 04:19:18;;;;;;;698.85;585.92;;;;;;;;;;5008395;28;20042;-61
2023/08/08 04:21:45;;;;;;;708.65;600.67;;;;;;;;;;5008181;28;20096;-63
2023/08/08 04:24:12;;;;;;;719.03;589.95;;;;;;;;;;5008105;28;20569;-65
2023/08/08 04:26:38;;;;;;;702.25;589.55;;;;;;;;;;4991365;28;20148;-63
2023/08/08 04:29:05;;;;;;;707.88;597.63;;;;;;;;;;5012888;28;20125;-62
2023/08/08 04:31:32;;;;;;;707.47;594.75;;;;;;;;;;5012231;28;20132;-63
2023/08/08 04:34:00;;;;;;;709.53;612.10;;;;;;;;;;5012278;28;20046;-63
2023/08/08 04:36:28;;;;;;;729.92;633.05;;;;;;;;;;5011681;28;20046;-62
2023/08/08 04:38:54;;;;;;;727.22;648.72;;;;;;;;;;5002589;28;20053;-64
2023/08/08 04:41:21;;;;;;;760.70;678.88;;;;;;;;;;5009977;28;20403;-63
2023/08/08 04:43:47;;;;;;;782.08;700.03;;;;;;;;;;5012378;28;20045;-64
2023/08/08 04:46:14;;;;;;;821.95;740.63;;;;;;;;;;5011327;28;20073;-62
2023/08/08 04:48:41;;;;;;;844.15;761.75;;;;;;;;;;5008754;28;20042;-62
2023/08/08 04:51:08;;;;;;;882.15;796.13;;;;;;;;;;5011093;28;20479;-62
2023/08/08 04:53:35;;;;;;;898.25;809.47;;;;;;;;;;5010953;28;20072;-63
2023/08/08 04:56:01;;;;;;;914.20;827.65;;;;;;;;;;5012271;28;20046;-62
2023/08/08 04:58:28;;;;;;;937.83;849.60;;;;;;;;;;5011298;28;20376;-63
2023/08/08 05:00:55;;;;;;;936.95;850.08;;;;;;;;;;5011268;28;20073;-65
2023/08/08 05:03:21;;;;;;;970.95;882.42;;;;;;;;;;5027550;28;20046;-64
2023/08/08 05:05:48;;;;;;;954.28;865.58;;;;;;;;;;5013023;28;20045;-62
2023/08/08 05:08:14;;;;;;;958.63;871.13;;;;;;;;;;5030921;28;20085;-67
2023/08/08 05:10:41;;;;;;;956.80;867.90;;;;;;;;;;5028713;28;20049;-61
2023/08/08 05:13:09;;;;;;;957.25;866.30;;;;;;;;;;5010955;28;20045;-63
2023/08/08 05:15:35;;;;;;;938.05;851.13;;;;;;;;;;5012898;28;20049;-62
2023/08/08 05:18:02;;;;;;;948.63;860.13;;;;;;;;;;5013017;28;20076;-63
2023/08/08 05:20:28;;;;;;;964.25;870.35;;;;;;;;;;5030285;28;20410;-61
2023/08/08 05:22:55;;;;;;;955.80;867.30;;;;;;;;;;5014228;28;20076;-62
2023/08/08 05:25:22;;;;;;;954.25;866.80;;;;;;;;;;5030311;28;20116;-62
2023/08/08 05:27:49;;;;;;;967.00;878.47;;;;;;;;;;5012462;28;20045;-62
2023/08/08 05:30:16;;;;;;;951.05;864.08;;;;;;;;;;5012439;28;20041;-63
2023/08/08 05:32:42;;;;;;;944.63;856.13;;;;;;;;;;5012621;28;20034;-63
2023/08/08 05:35:09;;;;;;;934.88;845.28;;;;;;;;;;5029134;28;20069;-62
2023/08/08 05:37:36;;;;;;;914.00;827.80;;;;;;;;;;5030204;28;20130;-62
2023/08/08 05:40:05;;;;;;;890.10;804.65;;;;;;;;;;5028894;28;20068;-64
2023/08/08 05:42:32;;;;;;;887.75;801.63;;;;;;;;;;5012244;28;20041;-63
2023/08/08 05:44:59;;;;;;;878.35;787.17;;;;;;;;;;5012256;28;20048;-62
2023/08/08 05:47:26;;;;;;;866.38;778.83;;;;;;;;;;5009950;28;20041;-64
2023/08/08 05:49:52;;;;;;;859.30;775.75;;;;;;;;;;4999754;28;20042;-69
2023/08/08 05:52:21;;;;;;;854.92;768.05;;;;;;;;;;5029583;28;20045;-62
2023/08/08 05:54:47;;;;;;;844.67;761.13;;;;;;;;;;4995392;28;20041;-61
2023/08/08 05:57:14;;;;;;;840.80;758.38;;;;;;;;;;5030044;28;20052;-62
2023/08/08 05:59:40;;;;;;;857.90;773.95;;;;;;;;;;5029913;28;20095;-63
2023/08/08 06:02:07;;;;;;;853.20;771.08;;;;;;;;;;5030847;28;20061;-61
2023/08/08 06:04:34;;;;;;;869.65;783.05;;;;;;;;;;5029581;28;20047;-62
2023/08/08 06:07:00;;;;;;;861.63;779.50;;;;;;;;;;5029796;28;20049;-65
2023/08/08 06:09:28;;;;;;;860.95;775.97;;;;;;;;;;5029272;28;20136;-62
2023/08/08 06:11:54;;;;;;;866.97;779.97;;;;;;;;;;5029039;28;20041;-63
2023/08/08 06:14:21;;;;;;;865.95;777.38;;;;;;;;;;4994637;28;20103;-63
2023/08/08 06:16:47;;;;;;;870.65;787.10;;;;;;;;;;5029393;28;20053;-63
2023/08/08 06:19:15;;;;;;;887.85;803.15;;;;;;;;;;5028421;28;20445;-63
2023/08/08 06:21:42;;;;;;;894.10;808.92;;;;;;;;;;5028052;28;20072;-62
2023/08/08 06:24:09;;;;;;;909.72;820.05;;;;;;;;;;5010452;28;20117;-63
2023/08/08 06:26:35;;;;;;;909.40;821.60;;;;;;;;;;5010587;28;20053;-63
2023/08/08 06:29:02;;;;;;;903.25;817.47;;;;;;;;;;5030332;28;20487;-61
2023/08/08 06:31:29;;;;;;;895.38;809.83;;;;;;;;;;5028605;28;20091;-63
2023/08/08 06:33:56;;;;;;;886.47;801.97;;;;;;;;;;5027870;28;20052;-63
2023/08/08 06:36:22;;;;;;;887.35;800.92;;;;;;;;;;5027438;28;20053;-63
2023/08/08 06:38:49;;;;;;;886.53;801.33;;;;;;;;;;5027942;28;20045;-62
2023/08/08 06:41:15;;;;;;;885.45;800.20;;;;;;;;;;5009329;28;20054;-64
2023/08/08 06:43:42;;;;;;;895.08;808.28;;;;;;;;;;5027351;28;20079;-63
2023/08/08 06:46:08;;;;;;;893.80;806.92;;;;;;;;;;5026744;28;20415;-64
2023/08/08 06:48:35;;;;;;;899.65;813.05;;;;;;;;;;5027567;28;20056;-62
2023/08/08 06:51:02;;;;;;;896.78;810.47;;;;;;;;;;5027767;28;20044;-63
2023/08/08 06:53:28;;;;;;;902.30;813.45;;;;;;;;;;5011070;28;20068;-62
2023/08/08 06:55:55;;;;;;;870.75;785.65;;;;;;;;;;5006801;28;20452;-62
2023/08/08 06:58:21;;;;;;;867.67;784.45;;;;;;;;;;5028593;28;20049;-62
2023/08/08 07:00:48;;;;;;;875.30;792.63;;;;;;;;;;5029026;28;20543;-62
2023/08/08 07:03:14;;;;;;;871.22;785.17;;;;;;;;;;5024822;28;20049;-62
2023/08/08 07:05:41;;;;;;;874.00;788.53;;;;;;;;;;5028708;28;20411;-62
2023/08/08 07:08:08;;;;;;;882.15;798.80;;;;;;;;;;5012257;28;20053;-62
2023/08/08 07:10:36;;;;;;;882.55;798.22;;;;;;;;;;5010595;28;20049;-62
2023/08/08 07:13:02;;;;;;;882.17;796.97;;;;;;;;;;5010948;28;20052;-62
2023/08/08 07:15:30;;;;;;;905.70;820.75;;;;;;;;;;5028935;28;20155;-62
2023/08/08 07:17:57;;;;;;;900.17;810.65;;;;;;;;;;5010771;28;20045;-62
2023/08/08 07:20:24;;;;;;;917.22;828.60;;;;;;;;;;5028487;28;20045;-64
2023/08/08 07:22:50;;;;;;;893.50;808.22;;;;;;;;;;5028654;28;20045;-70
2023/08/08 07:25:17;;;;;;;900.00;814.83;;;;;;;;;;5026642;28;20050;-67
2023/08/08 07:27:44;;;;;;;913.13;825.80;;;;;;;;;;5026888;28;20043;-64
2023/08/08 07:30:11;;;;;;;905.25;818.97;;;;;;;;;;5027345;28;20103;-63
2023/08/08 07:32:38;;;;;;;924.35;838.38;;;;;;;;;;5010604;28;20056;-62
2023/08/08 07:35:08;;;;;;;947.35;857.28;;;;;;;;;;5029180;28;20041;-65
2023/08/08 07:37:35;;;;;;;937.58;849.53;;;;;;;;;;5010258;28;20127;-62
2023/08/08 07:40:03;;;;;;;923.13;837.92;;;;;;;;;;5009581;28;20437;-63
2023/08/08 07:42:30;;;;;;;947.95;858.95;;;;;;;;;;5027880;28;20042;-62
2023/08/08 07:44:57;;;;;;;964.33;875.65;;;;;;;;;;5028131;28;20056;-62
2023/08/08 07:47:23;;;;;;;954.72;865.20;;;;;;;;;;5027481;28;20045;-63
2023/08/08 07:49:50;;;;;;;940.97;850.88;;;;;;;;;;5029074;28;20046;-62
2023/08/08 07:52:17;;;;;;;930.65;845.78;;;;;;;;;;5027719;28;20514;-63
2023/08/08 07:54:43;;;;;;;944.72;857.13;;;;;;;;;;5027511;28;20053;-62
2023/08/08 07:57:10;;;;;;;953.92;865.15;;;;;;;;;;5009895;28;20041;-63
2023/08/08 07:59:37;;;;;;;944.25;855.28;;;;;;;;;;5027922;28;20047;-63
2023/08/08 08:02:05;;;;;;;935.15;845.38;;;;;;;;;;5029123;28;20084;-63
2023/08/08 08:04:35;;;;;;;940.45;850.28;;;;;;;;;;5030278;28;20041;-63
2023/08/08 08:07:10;;;;;;;927.42;838.95;;;;;;;;;;5028970;28;20447;-64
2023/08/08 08:09:42;;;;;;;;;;;;;;;;;;5012800;28;20068;-64
2023/08/08 08:12:13;;;;;;;911.05;824.10;;;;;;;;;;5030980;28;19928;-64
2023/08/08 08:14:46;;;;;;;911.47;824.42;;;;;;;;;;5012957;28;20061;-64
2023/08/08 08:17:19;;;;;;;910.63;822.55;;;;;;;;;;5002408;28;20073;-64
2023/08/08 08:19:51;;;;;;;908.75;822.35;;;;;;;;;;5029930;28;20073;-62
2023/08/08 08:22:25;;;;;;;907.30;820.30;;;;;;;;;;5030349;28;20060;-64
2023/08/08 08:24:56;;;;;;;896.53;811.42;;;;;;;;;;5012223;28;20121;-63
2023/08/08 08:27:29;;;;;;;897.97;811.85;;;;;;;;;;5031181;28;20045;-63
2023/08/08 08:30:01;;;;;;;903.60;817.65;;;;;;;;;;5031562;28;20130;-63
2023/08/08 08:32:34;;;;;;;911.83;823.25;;;;;;;;;;5029067;28;20499;-63
2023/08/08 08:35:09;;;;;;;922.40;834.53;;;;;;;;;;5019623;28;20052;-62
2023/08/08 08:37:40;;;;;;;933.67;846.20;;;;;;;;;;5031523;28;20049;-62
2023/08/08 08:40:11;;;;;;;928.35;842.33;;;;;;;;;;5013419;28;20187;-62
2023/08/08 08:42:44;;;;;;;929.78;843.90;;;;;;;;;;5031210;28;20053;-63
2023/08/08 08:45:20;;;;;;;916.30;831.05;;;;;;;;;;5031128;28;20033;-62
2023/08/08 08:47:56;;;;;;;932.20;845.72;;;;;;;;;;5024485;28;20038;-62
2023/08/08 08:50:32;;;;;;;926.58;835.70;;;;;;;;;;5013892;28;20122;-62
2023/08/08 08:53:07;;;;;;;920.85;832.65;;;;;;;;;;5030964;28;20038;-62
2023/08/08 08:55:39;;;;;;;924.95;836.85;;;;;;;;;;5013032;28;20554;-64
2023/08/08 08:58:13;;;;;;;918.22;830.75;;;;;;;;;;5027074;28;20073;-66
2023/08/08 09:00:46;;;;;;;942.90;855.72;;;;;;;;;;5031162;28;20471;-63
2023/08/08 09:03:20;;;;;;;933.92;848.17;;;;;;;;;;5030519;28;20057;-65
2023/08/08 09:06:01;;;;;;;937.33;851.80;;;;;;;;;;5027842;28;20129;-64
2023/08/08 09:08:34;;;;;;;960.95;868.35;;;;;;;;;;5028693;28;20045;-63
2023/08/08 09:11:05;;;;;;;962.78;874.17;;;;;;;;;;5013723;28;20095;-62
2023/08/08 09:13:37;;;;;;;954.00;865.33;;;;;;;;;;5012184;28;20191;-63
2023/08/08 09:16:08;;;;;;;966.88;876.42;;;;;;;;;;5030483;28;20041;-64
2023/08/08 09:18:42;;;;;;;950.03;861.67;;;;;;;;;;5030725;28;20100;-62
2023/08/08 09:21:15;;;;;;;939.83;853.33;;;;;;;;;;5006145;28;20045;-63
2023/08/08 09:23:52;;;;;;;940.13;851.53;;;;;;;;;;5030482;28;20127;-63
2023/08/08 09:26:25;;;;;;;948.65;856.33;;;;;;;;;;5003698;28;20411;-65
2023/08/08 09:28:57;;;;;;;928.60;842.42;;;;;;;;;;5031419;28;20041;-64
2023/08/08 09:31:27;;;;;;;933.30;845.22;;;;;;;;;;5030608;28;20045;-63
2023/08/08 09:34:01;;;;;;;919.50;833.85;;;;;;;;;;5012300;28;20045;-64
2023/08/08 09:36:33;;;;;;;921.58;827.90;;;;;;;;;;5030117;28;20128;-66
2023/08/08 09:39:04;;;;;;;917.80;830.42;;;;;;;;;;5026082;28;20426;-63
2023/08/08 09:41:39;;;;;;;910.70;824.33;;;;;;;;;;5028435;28;20129;-66
2023/08/08 09:44:11;;;;;;;906.33;819.35;;;;;;;;;;5030900;28;20411;-63
2023/08/08 09:46:43;;;;;;;927.15;838.78;;;;;;;;;;5030307;28;20050;-64
2023/08/08 09:49:16;;;;;;;924.42;838.17;;;;;;;;;;5029403;28;20498;-63
2023/08/08 09:51:47;;;;;;;938.30;852.10;;;;;;;;;;5012061;28;20103;-62
2023/08/08 09:54:17;;;;;;;944.42;854.92;;;;;;;;;;5011282;28;20049;-64
2023/08/08 09:56:49;;;;;;;942.72;855.80;;;;;;;;;;4997102;28;20128;-63
2023/08/08 09:59:19;;;;;;;956.00;866.17;;;;;;;;;;5008887;28;20224;-65
2023/08/08 10:01:51;;;;;;;953.17;864.90;;;;;;;;;;5028940;28;20064;-64
2023/08/08 10:04:25;;;;;;;945.38;856.65;;;;;;;;;;5029142;28;20041;-62
2023/08/08 10:06:58;;;;;;;927.63;840.60;;;;;;;;;;5010475;28;20103;-66
2023/08/08 10:09:34;;;;;;;945.75;857.83;;;;;;;;;;5028657;28;20052;-64
2023/08/08 10:12:08;;;;;;;943.40;855.10;;;;;;;;;;5002382;28;20048;-63
2023/08/08 10:14:38;;;;;;;947.55;856.58;;;;;;;;;;5028251;28;20046;-63
2023/08/08 10:17:12;;;;;;;945.70;855.70;;;;;;;;;;5030100;28;20045;-62
2023/08/08 10:19:56;;;;;;;943.88;855.08;;;;;;;;;;5029265;28;20045;-63
2023/08/08 10:22:28;;;;;;;952.58;862.38;;;;;;;;;;5027482;28;20112;-63
2023/08/08 10:25:03;;;;;;;961.40;872.80;;;;;;;;;;5007635;28;20458;-63
2023/08/08 10:27:35;;;;;;;960.85;870.88;;;;;;;;;;5011357;28;20120;-64
2023/08/08 10:30:10;;;;;;;957.22;867.72;;;;;;;;;;5011375;28;20074;-62
2023/08/08 10:32:40;;;;;;;953.88;864.55;;;;;;;;;;5028981;28;20037;-64
2023/08/08 10:35:12;;;;;;;957.33;868.20;;;;;;;;;;5012918;28;20132;-64
2023/08/08 10:37:52;;;;;;;948.83;861.70;;;;;;;;;;5011088;28;20252;-64
2023/08/08 10:40:32;;;;;;;957.05;866.78;;;;;;;;;;5026150;28;20232;-63
2023/08/08 10:43:10;;;;;;;959.63;870.63;;;;;;;;;;5028353;28;20037;-62
2023/08/08 10:45:43;;;;;;;958.20;868.63;;;;;;;;;;5025124;28;20428;-63
2023/08/08 10:48:12;;;;;;;964.88;873.10;;;;;;;;;;5010081;28;20049;-64
2023/08/08 10:50:42;;;;;;;957.55;867.80;;;;;;;;;;5010908;28;20148;-64
2023/08/08 10:53:15;;;;;;;950.83;862.88;;;;;;;;;;5029769;28;20041;-63
2023/08/08 10:55:57;;;;;;;931.58;845.03;;;;;;;;;;5028621;28;20517;-64
2023/08/08 10:58:38;;;;;;;961.35;869.60;;;;;;;;;;5024059;28;20052;-63
2023/08/08 11:01:07;;;;;;;938.17;849.85;;;;;;;;;;5005483;28;20084;-63
2023/08/08 11:03:39;;;;;;;949.70;859.80;;;;;;;;;;4993937;28;20058;-64
2023/08/08 11:06:06;;;;;;;962.90;871.00;;;;;;;;;;5028022;28;20063;-63
2023/08/08 11:08:33;;;;;;;982.58;885.97;;;;;;;;;;5012150;28;20053;-63
2023/08/08 11:10:59;;;;;;;955.38;866.33;;;;;;;;;;5029470;28;20045;-63
2023/08/08 11:13:26;;;;;;;953.95;867.00;;;;;;;;;;5010507;28;20911;-63
2023/08/08 11:15:53;;;;;;;958.30;871.78;;;;;;;;;;5028446;28;20038;-66
2023/08/08 11:18:20;;;;;;;1013.30;862.13;;;;;;;;;;5010753;28;20048;-63
2023/08/08 11:20:48;;;;;;;957.33;870.25;;;;;;;;;;5026638;28;20559;-64
2023/08/08 11:23:15;;;;;;;961.03;873.75;;;;;;;;;;5026762;28;20612;-63
2023/08/08 11:25:42;;;;;;;974.75;885.78;;;;;;;;;;5010032;28;20067;-64
2023/08/08 11:28:10;;;;;;;958.78;869.97;;;;;;;;;;5010332;28;20097;-64
2023/08/08 11:30:38;;;;;;;965.92;877.30;;;;;;;;;;5028327;28;20529;-63
2023/08/08 11:33:05;;;;;;;960.22;871.47;;;;;;;;;;5010366;28;20558;-64
2023/08/08 11:35:35;;;;;;;962.20;870.08;;;;;;;;;;5028522;28;20049;-63
2023/08/08 11:38:02;;;;;;;955.50;866.85;;;;;;;;;;5028794;28;20037;-65
2023/08/08 11:40:29;;;;;;;954.08;865.33;;;;;;;;;;5009660;28;20048;-64
2023/08/08 11:42:56;;;;;;;952.22;865.03;;;;;;;;;;5028440;28;20125;-63
2023/08/08 11:45:24;;;;;;;948.50;861.45;;;;;;;;;;5010581;28;20116;-64
2023/08/08 11:47:52;;;;;;;950.53;864.10;;;;;;;;;;5009915;28;20136;-65
2023/08/08 11:50:22;;;;;;;966.92;878.50;;;;;;;;;;5010827;28;20125;-64
2023/08/08 11:52:50;;;;;;;960.00;872.38;;;;;;;;;;5028979;28;20044;-64
2023/08/08 11:55:22;;;;;;;962.90;875.70;;;;;;;;;;4991293;28;20046;-64
2023/08/08 11:57:49;;;;;;;962.40;874.63;;;;;;;;;;5010115;28;20069;-63
2023/08/08 12:00:17;;;;;;;953.42;865.42;;;;;;;;;;5009951;28;20041;-63
2023/08/08 12:02:45;;;;;;;948.55;862.28;;;;;;;;;;5024991;28;20076;-63
2023/08/08 12:05:13;;;;;;;946.67;857.58;;;;;;;;;;5028807;28;20045;-64
2023/08/08 12:07:41;;;;;;;960.90;873.05;;;;;;;;;;5011898;28;20487;-63
2023/08/08 12:10:17;;;;;;;954.42;866.25;;;;;;;;;;5025319;28;20099;-63
2023/08/08 12:12:45;;;;;;;943.17;856.47;;;;;;;;;;5010125;28;20096;-64
2023/08/08 12:15:12;;;;;;;974.95;885.30;;;;;;;;;;5027936;28;20408;-65
2023/08/08 12:17:42;;;;;;;951.45;863.50;;;;;;;;;;5028017;28;20127;-64
2023/08/08 12:20:09;;;;;;;954.25;866.47;;;;;;;;;;5011042;28;20080;-64
2023/08/08 12:22:36;;;;;;;965.20;875.95;;;;;;;;;;5009779;28;20546;-63
2023/08/08 12:25:04;;;;;;;967.15;878.13;;;;;;;;;;5009351;28;20326;-64
2023/08/08 12:27:30;;;;;;;974.05;884.25;;;;;;;;;;5027829;28;20056;-63
2023/08/08 12:29:57;;;;;;;978.90;890.22;;;;;;;;;;5009956;28;20103;-64
2023/08/08 12:32:26;;;;;;;983.58;890.90;;;;;;;;;;5027865;28;20046;-66
2023/08/08 12:34:53;;;;;;;973.92;885.35;;;;;;;;;;4985683;28;20041;-65
2023/08/08 12:37:20;;;;;;;959.58;872.80;;;;;;;;;;5027886;28;20548;-62
2023/08/08 12:39:46;;;;;;;955.03;868.40;;;;;;;;;;5026791;28;20133;-63
2023/08/08 12:42:13;;;;;;;966.30;877.60;;;;;;;;;;5027828;28;20120;-65
2023/08/08 12:44:39;;;;;;;968.40;880.35;;;;;;;;;;5027446;28;20059;-62
2023/08/08 12:47:06;;;;;;;970.42;877.35;;;;;;;;;;5026635;28;20048;-64
2023/08/08 12:49:33;;;;;;;965.10;876.78;;;;;;;;;;5028228;28;20460;-64
2023/08/08 12:51:59;;;;;;;958.08;869.60;;;;;;;;;;5031024;28;20049;-63
2023/08/08 12:54:26;;;;;;;967.13;876.30;;;;;;;;;;5030417;28;20044;-65
2023/08/08 12:56:52;;;;;;;961.33;872.80;;;;;;;;;;5030572;28;20132;-64
2023/08/08 12:59:19;;;;;;;963.50;873.97;;;;;;;;;;5027897;28;20120;-68
2023/08/08 13:01:45;;;;;;;956.35;869.53;;;;;;;;;;5030131;28;20458;-63
2023/08/08 13:04:12;;;;;;;971.08;880.72;;;;;;;;;;5029951;28;20076;-65
2023/08/08 13:06:47;;;;;;;970.80;882.55;;;;;;;;;;5032727;28;20045;-64
2023/08/08 13:09:14;;;;;;;977.15;885.35;;;;;;;;;;5030080;28;20041;-65
2023/08/08 13:11:41;;;;;;;972.47;880.92;;;;;;;;;;5012895;28;20045;-66
2023/08/08 13:14:08;;;;;;;968.30;878.53;;;;;;;;;;5030940;28;20581;-63
2023/08/08 13:16:34;;;;;;;976.85;885.45;;;;;;;;;;5030246;28;20053;-63
2023/08/08 13:19:01;;;;;;;969.40;880.03;;;;;;;;;;5029825;28;20499;-64
2023/08/08 13:21:28;;;;;;;971.15;881.13;;;;;;;;;;5030548;28;20045;-64
2023/08/08 13:23:54;;;;;;;965.42;877.22;;;;;;;;;;5012232;28;20049;-63
2023/08/08 13:26:21;;;;;;;957.90;866.25;;;;;;;;;;5025132;28;20038;-64
2023/08/08 13:28:49;;;;;;;974.83;885.03;;;;;;;;;;5012952;28;20068;-64
2023/08/08 13:31:16;;;;;;;976.92;888.65;;;;;;;;;;5020672;28;20030;-63
2023/08/08 13:33:43;;;;;;;983.47;893.92;;;;;;;;;;5030057;28;20049;-63
2023/08/08 13:36:09;;;;;;;995.22;904.42;;;;;;;;;;5030291;28;20422;-63
2023/08/08 13:38:36;;;;;;;991.85;897.05;;;;;;;;;;5030490;28;20045;-63
2023/08/08 13:41:03;;;;;;;988.58;898.47;;;;;;;;;;5030543;28;20053;-63
2023/08/08 13:43:30;;;;;;;995.80;906.25;;;;;;;;;;5029831;28;20034;-64
2023/08/08 13:45:57;;;;;;;999.97;904.05;;;;;;;;;;5012117;28;20132;-63
2023/08/08 13:48:23;;;;;;;981.55;891.53;;;;;;;;;;5028727;28;20570;-65
2023/08/08 13:50:51;;;;;;;977.38;888.38;;;;;;;;;;5030230;28;20065;-64
2023/08/08 13:53:17;;;;;;;973.22;886.22;;;;;;;;;;5029737;28;20049;-63
2023/08/08 13:55:44;;;;;;;974.42;877.05;;;;;;;;;;5029409;28;20046;-64
2023/08/08 13:58:11;;;;;;;971.53;881.83;;;;;;;;;;5030044;28;20375;-65
2023/08/08 14:00:37;;;;;;;973.13;886.50;;;;;;;;;;5029009;28;20396;-67